Time;durP1;ratioP1;P1;durP2;ratioP2;P2;SDS_P1;SDS_P2;PMS_P1;PMS_P2;Temp;Humidity;BMP_temperature;BMP_pressure;BME280_temperature;BME280_humidity;BME280_pressure;Samples;Min_cycle;Max_cycle;Signal;HPM_P1;HPM_P2
2023/10/04 00:10:04;;;;;;;6.47;3.30;;;;;;;;;;10238901;23;20063;-93
2023/10/04 00:18:49;;;;;;;7.95;3.28;;;;;;;;;;10167570;23;20033;-89
2023/10/04 00:41:53;;;;;;;8.80;3.83;;;;;;;;;;10067062;23;20023;-96
2023/10/04 00:46:00;;;;;;;9.00;3.35;;;;;;;;;;10048727;23;20491;-95
2023/10/04 00:50:14;;;;;;;7.63;3.90;;;;;;;;;;10049174;23;20105;-91
2023/10/04 00:54:18;;;;;;;11.10;3.55;;;;;;;;;;10182521;23;20052;-90
2023/10/04 00:58:21;;;;;;;10.05;4.18;;;;;;;;;;10245451;23;20460;-88
2023/10/04 01:02:46;;;;;;;7.50;3.55;;;;;;;;;;10246218;23;20033;-90
2023/10/04 01:06:50;;;;;;;11.43;4.50;;;;;;;;;;10259304;23;20059;-90
2023/10/04 01:11:10;;;;;;;9.75;4.18;;;;;;;;;;10238295;23;20048;-95
2023/10/04 01:15:28;;;;;;;9.38;3.92;;;;;;;;;;10242270;23;20043;-91
2023/10/04 01:23:56;;;;;;;8.77;4.07;;;;;;;;;;10051219;23;20440;-92
2023/10/04 01:32:19;;;;;;;9.55;3.58;;;;;;;;;;10195880;23;20028;-93
2023/10/04 01:36:48;;;;;;;7.55;3.47;;;;;;;;;;10197871;23;20063;-91
2023/10/04 01:40:52;;;;;;;6.13;3.10;;;;;;;;;;10215440;23;20442;-92
2023/10/04 01:44:57;;;;;;;5.82;2.67;;;;;;;;;;10194292;23;20017;-92
2023/10/04 01:49:04;;;;;;;7.43;3.30;;;;;;;;;;10210844;23;20028;-96
2023/10/04 01:53:08;;;;;;;4.97;3.15;;;;;;;;;;10213739;23;20044;-92
2023/10/04 01:57:48;;;;;;;7.72;2.70;;;;;;;;;;10195963;23;20056;-96
2023/10/04 02:01:52;;;;;;;5.80;2.60;;;;;;;;;;10216716;23;20072;-95
2023/10/04 02:06:11;;;;;;;5.40;2.38;;;;;;;;;;10198603;23;20018;-93
2023/10/04 02:10:38;;;;;;;4.70;2.70;;;;;;;;;;10207033;23;20092;-93
2023/10/04 02:14:42;;;;;;;7.55;2.38;;;;;;;;;;10218032;23;20327;-89
2023/10/04 02:18:56;;;;;;;8.65;2.30;;;;;;;;;;10202049;23;20028;-93
2023/10/04 02:23:07;;;;;;;4.20;2.13;;;;;;;;;;10216129;23;20096;-94
2023/10/04 02:27:22;;;;;;;8.77;2.67;;;;;;;;;;10216110;23;20024;-90
2023/10/04 02:31:27;;;;;;;8.43;2.70;;;;;;;;;;10207583;23;20025;-91
2023/10/04 02:35:43;;;;;;;7.35;2.10;;;;;;;;;;10202976;23;20017;-91
2023/10/04 02:44:17;;;;;;;3.47;1.70;;;;;;;;;;10198764;23;20045;-89
2023/10/04 02:48:35;;;;;;;4.95;2.05;;;;;;;;;;10202115;23;20060;-95
2023/10/04 02:52:44;;;;;;;3.23;1.73;;;;;;;;;;10163386;23;20390;-91
2023/10/04 02:56:50;;;;;;;6.03;1.98;;;;;;;;;;10207110;23;20017;-91
2023/10/04 03:00:54;;;;;;;5.20;2.20;;;;;;;;;;10223133;23;20032;-92
2023/10/04 03:05:01;;;;;;;4.28;2.10;;;;;;;;;;10208589;23;20018;-92
2023/10/04 03:09:24;;;;;;;6.97;2.20;;;;;;;;;;10206937;23;20071;-90
2023/10/04 03:13:47;;;;;;;3.65;2.20;;;;;;;;;;10185541;23;20017;-90
2023/10/04 03:18:20;;;;;;;14.23;6.88;;;;;;;;;;10210046;23;20025;-92
2023/10/04 03:22:26;;;;;;;7.47;2.90;;;;;;;;;;10225914;23;20049;-89
2023/10/04 03:26:46;;;;;;;5.82;2.78;;;;;;;;;;10206971;23;20037;-92
2023/10/04 03:30:56;;;;;;;5.85;3.42;;;;;;;;;;10222640;23;20022;-89
2023/10/04 03:35:14;;;;;;;6.80;3.30;;;;;;;;;;10242279;23;20032;-87
2023/10/04 03:39:22;;;;;;;7.43;3.63;;;;;;;;;;10230454;23;20022;-89
2023/10/04 03:44:05;;;;;;;8.45;4.57;;;;;;;;;;10229245;23;20044;-94
2023/10/04 03:58:22;;;;;;;13.40;4.22;;;;;;;;;;10199574;23;20051;-95
2023/10/04 04:02:27;;;;;;;10.05;3.58;;;;;;;;;;10204484;23;20453;-91
2023/10/04 04:06:32;;;;;;;7.47;4.03;;;;;;;;;;10207849;23;20060;-95
2023/10/04 04:10:37;;;;;;;6.90;3.17;;;;;;;;;;10205451;23;20449;-94
2023/10/04 04:14:48;;;;;;;9.10;3.03;;;;;;;;;;10212035;23;20017;-88
2023/10/04 04:19:14;;;;;;;7.25;3.38;;;;;;;;;;10222587;23;20021;-89
2023/10/04 04:23:22;;;;;;;6.35;2.95;;;;;;;;;;10200329;23;20025;-88
2023/10/04 04:28:03;;;;;;;5.05;3.30;;;;;;;;;;10213605;23;20037;-87
2023/10/04 04:32:29;;;;;;;4.78;3.47;;;;;;;;;;10199320;23;20044;-90
2023/10/04 04:36:37;;;;;;;11.07;3.63;;;;;;;;;;10203370;23;20021;-87
2023/10/04 04:41:49;;;;;;;6.22;2.67;;;;;;;;;;10240003;23;20022;-89
2023/10/04 04:46:18;;;;;;;5.95;2.70;;;;;;;;;;10193528;23;20021;-89
2023/10/04 04:51:14;;;;;;;8.52;2.85;;;;;;;;;;10127688;23;20542;-88
2023/10/04 04:56:24;;;;;;;6.97;2.65;;;;;;;;;;10193933;23;20026;-88
2023/10/04 05:00:33;;;;;;;6.03;3.13;;;;;;;;;;10220053;23;20021;-88
2023/10/04 05:04:52;;;;;;;5.10;2.63;;;;;;;;;;10210474;23;20021;-88
2023/10/04 05:14:09;;;;;;;6.90;2.70;;;;;;;;;;9907811;24;20032;-88
2023/10/04 05:18:17;;;;;;;7.88;3.03;;;;;;;;;;10034501;23;20085;-89
2023/10/04 05:22:27;;;;;;;5.45;3.00;;;;;;;;;;10106722;23;20091;-88
2023/10/04 05:26:35;;;;;;;5.13;2.58;;;;;;;;;;10109382;23;20106;-88
2023/10/04 05:30:44;;;;;;;5.00;2.83;;;;;;;;;;10092764;23;20022;-88
2023/10/04 05:34:56;;;;;;;6.47;2.65;;;;;;;;;;10109409;23;20497;-88
2023/10/04 05:39:03;;;;;;;4.47;2.27;;;;;;;;;;10210346;23;20048;-88
2023/10/04 05:43:16;;;;;;;5.07;2.40;;;;;;;;;;10216026;23;20491;-88
2023/10/04 05:51:55;;;;;;;7.35;2.17;;;;;;;;;;10162360;23;20041;-87
2023/10/04 05:56:00;;;;;;;4.03;2.17;;;;;;;;;;10118817;23;20395;-88
2023/10/04 06:05:19;;;;;;;3.97;1.85;;;;;;;;;;10207030;23;20032;-90
2023/10/04 06:09:29;;;;;;;5.60;2.10;;;;;;;;;;10282904;23;20017;-90
2023/10/04 06:14:15;;;;;;;9.00;2.35;;;;;;;;;;10241767;23;20032;-89
2023/10/04 06:18:58;;;;;;;8.77;2.22;;;;;;;;;;10187749;23;20047;-87
2023/10/04 06:23:14;;;;;;;7.40;2.17;;;;;;;;;;10249860;23;20017;-87
2023/10/04 06:27:33;;;;;;;6.07;1.98;;;;;;;;;;10148617;23;20113;-90
2023/10/04 06:31:39;;;;;;;4.13;2.40;;;;;;;;;;10253130;23;20024;-88
2023/10/04 06:35:47;;;;;;;8.63;2.40;;;;;;;;;;10268921;23;20096;-88
2023/10/04 06:39:54;;;;;;;9.65;2.72;;;;;;;;;;10277844;23;20016;-89
2023/10/04 06:48:42;;;;;;;6.22;2.53;;;;;;;;;;10257796;23;20020;-88
2023/10/04 06:52:57;;;;;;;7.60;3.50;;;;;;;;;;10283321;23;20036;-88
2023/10/04 07:01:53;;;;;;;6.97;3.15;;;;;;;;;;10155862;23;20041;-89
2023/10/04 07:06:00;;;;;;;4.68;2.80;;;;;;;;;;10254885;23;20080;-88
2023/10/04 07:10:20;;;;;;;7.47;3.40;;;;;;;;;;10182047;23;20730;-88
2023/10/04 07:14:28;;;;;;;6.82;3.22;;;;;;;;;;10219630;23;20012;-88
2023/10/04 07:23:17;;;;;;;7.72;2.92;;;;;;;;;;10242346;23;20021;-89
2023/10/04 07:27:22;;;;;;;10.97;2.67;;;;;;;;;;10258682;23;20041;-88
2023/10/04 07:31:31;;;;;;;7.63;2.88;;;;;;;;;;10246567;23;20024;-87
2023/10/04 07:35:45;;;;;;;5.57;2.40;;;;;;;;;;10142053;23;20024;-86
2023/10/04 07:39:52;;;;;;;4.28;2.50;;;;;;;;;;10233451;23;20021;-88
2023/10/04 07:43:55;;;;;;;7.40;2.72;;;;;;;;;;10274711;23;20076;-88
2023/10/04 07:48:04;;;;;;;7.95;2.50;;;;;;;;;;10276879;23;20017;-90
2023/10/04 07:52:13;;;;;;;5.57;2.45;;;;;;;;;;10279847;23;20017;-93
2023/10/04 08:00:46;;;;;;;5.78;2.40;;;;;;;;;;10268724;23;20038;-89
2023/10/04 08:04:59;;;;;;;8.45;2.53;;;;;;;;;;10247433;23;20027;-88
2023/10/04 08:09:05;;;;;;;6.95;2.90;;;;;;;;;;10236509;23;20027;-96
2023/10/04 08:13:10;;;;;;;6.28;2.55;;;;;;;;;;10247704;23;20074;-94
2023/10/04 08:17:16;;;;;;;4.90;2.22;;;;;;;;;;10216076;23;20068;-89
2023/10/04 08:21:20;;;;;;;5.68;2.60;;;;;;;;;;10256241;23;20017;-95
2023/10/04 08:25:27;;;;;;;9.13;2.70;;;;;;;;;;10209384;23;20331;-88
2023/10/04 08:29:34;;;;;;;4.68;2.30;;;;;;;;;;10253845;23;20032;-90
2023/10/04 08:33:37;;;;;;;6.45;2.70;;;;;;;;;;10212497;23;20013;-87
2023/10/04 08:37:40;;;;;;;5.80;2.30;;;;;;;;;;10238336;23;20017;-89
2023/10/04 08:41:46;;;;;;;7.07;2.22;;;;;;;;;;10248943;23;20021;-88
2023/10/04 08:45:58;;;;;;;4.78;2.00;;;;;;;;;;10212629;23;20055;-87
2023/10/04 08:50:09;;;;;;;9.52;2.13;;;;;;;;;;10210998;23;20025;-89
2023/10/04 08:54:15;;;;;;;6.03;2.63;;;;;;;;;;10210345;23;20028;-90
2023/10/04 08:58:21;;;;;;;6.05;2.42;;;;;;;;;;10252594;23;20048;-88
2023/10/04 09:02:24;;;;;;;9.00;3.03;;;;;;;;;;10252212;23;20021;-87
2023/10/04 09:06:30;;;;;;;5.53;2.55;;;;;;;;;;10235847;23;20027;-89
2023/10/04 09:10:33;;;;;;;7.95;3.05;;;;;;;;;;10235557;23;20404;-87
2023/10/04 09:14:40;;;;;;;6.25;2.67;;;;;;;;;;10239761;23;20022;-88
2023/10/04 09:18:42;;;;;;;6.80;2.50;;;;;;;;;;10229500;23;20021;-87
2023/10/04 09:22:45;;;;;;;4.05;2.30;;;;;;;;;;10235633;23;20366;-92
2023/10/04 09:26:53;;;;;;;5.57;2.08;;;;;;;;;;10246292;23;20081;-92
2023/10/04 09:31:10;;;;;;;4.68;2.20;;;;;;;;;;10278322;23;20005;-92
2023/10/04 09:35:13;;;;;;;6.72;2.30;;;;;;;;;;10280996;23;20028;-88
2023/10/04 09:39:23;;;;;;;7.68;2.45;;;;;;;;;;10234749;23;20017;-87
2023/10/04 09:43:37;;;;;;;6.82;2.47;;;;;;;;;;10271249;23;20040;-87
2023/10/04 09:47:51;;;;;;;8.60;2.05;;;;;;;;;;10259799;23;20017;-86
2023/10/04 09:51:56;;;;;;;6.70;2.13;;;;;;;;;;10259238;23;20021;-87
2023/10/04 09:56:02;;;;;;;6.60;2.50;;;;;;;;;;10241346;23;20048;-86
2023/10/04 10:00:17;;;;;;;6.25;2.65;;;;;;;;;;10259629;23;20032;-87
2023/10/04 10:04:29;;;;;;;5.07;2.50;;;;;;;;;;10217552;23;20017;-87
2023/10/04 10:08:38;;;;;;;4.35;2.15;;;;;;;;;;10243183;23;20042;-88
2023/10/04 10:12:50;;;;;;;5.15;2.10;;;;;;;;;;10216589;23;20052;-87
2023/10/04 10:21:18;;;;;;;5.93;2.65;;;;;;;;;;10147183;23;20391;-87
2023/10/04 10:25:22;;;;;;;6.00;2.53;;;;;;;;;;10260027;23;20092;-87
2023/10/04 10:29:29;;;;;;;4.95;2.55;;;;;;;;;;10242923;23;20044;-87
2023/10/04 10:33:32;;;;;;;6.57;2.28;;;;;;;;;;10261751;23;20025;-88
2023/10/04 10:37:39;;;;;;;6.13;2.38;;;;;;;;;;10244106;23;20021;-89
2023/10/04 10:42:04;;;;;;;5.63;2.15;;;;;;;;;;10265397;23;20013;-87
2023/10/04 10:46:29;;;;;;;7.53;2.33;;;;;;;;;;10119382;23;20030;-86
2023/10/04 10:50:38;;;;;;;8.65;2.40;;;;;;;;;;10152544;23;20018;-88
2023/10/04 10:54:55;;;;;;;6.15;2.05;;;;;;;;;;10134857;23;20026;-87
2023/10/04 10:59:16;;;;;;;6.50;2.35;;;;;;;;;;10165991;23;20041;-88
2023/10/04 11:03:28;;;;;;;6.17;2.70;;;;;;;;;;10097182;23;20104;-88
2023/10/04 11:07:37;;;;;;;7.50;2.30;;;;;;;;;;10142576;23;20334;-88
2023/10/04 11:11:44;;;;;;;7.03;2.15;;;;;;;;;;10159658;23;20017;-94
2023/10/04 11:15:47;;;;;;;6.78;2.25;;;;;;;;;;10145808;23;20030;-96
2023/10/04 11:19:51;;;;;;;6.85;2.20;;;;;;;;;;10149066;23;20032;-94
2023/10/04 11:24:01;;;;;;;5.32;2.13;;;;;;;;;;10238617;23;20044;-96
2023/10/04 11:28:07;;;;;;;4.55;1.98;;;;;;;;;;10268174;23;20040;-93
2023/10/04 11:32:23;;;;;;;6.28;2.00;;;;;;;;;;10240242;23;20059;-90
2023/10/04 11:36:28;;;;;;;5.78;1.80;;;;;;;;;;10241629;23;20064;-90
2023/10/04 11:40:30;;;;;;;7.10;1.98;;;;;;;;;;10241663;23;20029;-91
2023/10/04 11:44:42;;;;;;;6.88;2.10;;;;;;;;;;10242605;23;20021;-95
2023/10/04 11:48:55;;;;;;;3.83;2.10;;;;;;;;;;10266562;23;20040;-95
2023/10/04 11:53:02;;;;;;;8.07;2.25;;;;;;;;;;10187635;23;20048;-94
2023/10/04 11:57:06;;;;;;;7.88;2.28;;;;;;;;;;10257593;23;20027;-95
2023/10/04 12:01:21;;;;;;;8.30;2.17;;;;;;;;;;10179480;23;20025;-93
2023/10/04 12:05:30;;;;;;;4.53;2.13;;;;;;;;;;10256176;23;20033;-95
2023/10/04 12:09:35;;;;;;;4.38;1.90;;;;;;;;;;10247594;23;20021;-95
2023/10/04 12:13:39;;;;;;;8.90;2.05;;;;;;;;;;10246352;23;20017;-93
2023/10/04 12:17:55;;;;;;;6.15;2.17;;;;;;;;;;10261530;23;20017;-90
2023/10/04 12:22:09;;;;;;;;;;;;;;;;;;10270977;23;20025;-94
2023/10/04 12:26:15;;;;;;;6.07;1.80;;;;;;;;;;10264997;23;20292;-93
2023/10/04 12:30:19;;;;;;;6.00;2.15;;;;;;;;;;10249703;23;20024;-93
2023/10/04 12:34:25;;;;;;;6.07;2.40;;;;;;;;;;10242122;23;20020;-95
2023/10/04 12:38:29;;;;;;;5.22;1.90;;;;;;;;;;10244021;23;20045;-93
2023/10/04 12:42:32;;;;;;;7.35;2.40;;;;;;;;;;10243655;23;20465;-95
2023/10/04 12:46:37;;;;;;;7.03;2.20;;;;;;;;;;10244916;23;20020;-96
2023/10/04 12:50:45;;;;;;;6.35;2.20;;;;;;;;;;10244642;23;20044;-95
2023/10/04 12:54:48;;;;;;;5.22;2.10;;;;;;;;;;10266164;23;20442;-93
2023/10/04 12:58:51;;;;;;;4.82;1.90;;;;;;;;;;10248660;23;20020;-90
2023/10/04 13:02:56;;;;;;;4.70;1.95;;;;;;;;;;10248720;23;20017;-94
2023/10/04 13:07:16;;;;;;;4.85;1.98;;;;;;;;;;10249010;23;20009;-93
2023/10/04 13:11:19;;;;;;;5.55;2.20;;;;;;;;;;10240632;23;20471;-91
2023/10/04 13:15:21;;;;;;;6.45;2.10;;;;;;;;;;10239254;23;20060;-96
2023/10/04 13:19:25;;;;;;;5.28;2.47;;;;;;;;;;10238765;23;20025;-95
2023/10/04 13:23:31;;;;;;;4.15;2.00;;;;;;;;;;10239399;23;20021;-93
2023/10/04 13:27:35;;;;;;;5.68;1.83;;;;;;;;;;10257371;23;20021;-92
2023/10/04 13:31:39;;;;;;;6.80;2.03;;;;;;;;;;10241749;23;20021;-96
2023/10/04 13:35:43;;;;;;;4.38;2.08;;;;;;;;;;10238207;23;20430;-94
2023/10/04 13:39:47;;;;;;;6.70;2.00;;;;;;;;;;10240851;23;20021;-95
2023/10/04 13:43:50;;;;;;;5.93;2.17;;;;;;;;;;10239652;23;20350;-95
2023/10/04 13:47:54;;;;;;;5.25;1.98;;;;;;;;;;10240589;23;20021;-96
2023/10/04 13:51:58;;;;;;;6.45;2.33;;;;;;;;;;10240012;23;20067;-95
2023/10/04 13:56:06;;;;;;;3.47;2.50;;;;;;;;;;10241489;23;20021;-93
2023/10/04 14:00:22;;;;;;;5.82;2.10;;;;;;;;;;10239966;23;20508;-94
2023/10/04 14:08:59;;;;;;;6.65;1.83;;;;;;;;;;10280133;23;20036;-96
2023/10/04 14:13:16;;;;;;;;;;;;;;;;;;;;;
2023/10/04 14:21:30;;;;;;;3.50;2.35;;;;;;;;;;10143440;23;20069;-94
2023/10/04 14:25:33;;;;;;;5.10;2.42;;;;;;;;;;10143306;23;20025;-94
2023/10/04 14:29:38;;;;;;;5.10;2.47;;;;;;;;;;10143838;23;20093;-96
2023/10/04 14:33:46;;;;;;;6.72;2.30;;;;;;;;;;10144150;23;20049;-95
2023/10/04 14:37:49;;;;;;;5.47;2.45;;;;;;;;;;10143313;23;20054;-95
2023/10/04 14:41:52;;;;;;;8.05;4.82;;;;;;;;;;10145199;23;20332;-96
2023/10/04 14:46:08;;;;;;;8.52;3.80;;;;;;;;;;10163457;23;20005;-85
2023/10/04 14:55:20;;;;;;;10.57;5.43;;;;;;;;;;10168936;23;20026;-96
2023/10/04 14:59:44;;;;;;;10.82;6.90;;;;;;;;;;10160384;23;20330;-96
2023/10/04 15:03:53;;;;;;;11.80;5.65;;;;;;;;;;10153066;23;20018;-92
2023/10/04 15:08:05;;;;;;;6.72;2.85;;;;;;;;;;10164526;23;20022;-93
2023/10/04 15:41:55;;;;;;;12.73;5.22;;;;;;;;;;9836782;24;20044;-92
2023/10/04 15:46:00;;;;;;;18.55;10.57;;;;;;;;;;9861153;24;20103;-89
2023/10/04 15:50:53;;;;;;;31.55;16.70;;;;;;;;;;9794063;24;20020;-92
2023/10/04 15:54:57;;;;;;;13.13;6.70;;;;;;;;;;9854600;24;20035;-87
2023/10/04 15:59:02;;;;;;;12.65;6.07;;;;;;;;;;9829135;24;20029;-89
2023/10/04 16:03:21;;;;;;;20.70;9.95;;;;;;;;;;9873432;24;20048;-94
2023/10/04 16:08:05;;;;;;;17.30;6.60;;;;;;;;;;9840712;24;20655;-96
2023/10/04 16:16:56;;;;;;;24.23;10.75;;;;;;;;;;10251273;23;20027;-91
2023/10/04 16:21:02;;;;;;;20.95;9.15;;;;;;;;;;10220530;23;20044;-96
2023/10/04 16:25:17;;;;;;;17.33;9.80;;;;;;;;;;10173779;23;20350;-89
2023/10/04 16:29:23;;;;;;;20.42;9.10;;;;;;;;;;10210397;23;20028;-91
2023/10/04 16:33:28;;;;;;;15.48;6.70;;;;;;;;;;10215950;23;20049;-88
2023/10/04 16:37:32;;;;;;;19.17;9.23;;;;;;;;;;10197064;23;20068;-94
2023/10/04 16:41:35;;;;;;;23.30;11.98;;;;;;;;;;10169438;23;20034;-92
2023/10/04 16:45:38;;;;;;;15.93;9.25;;;;;;;;;;10194241;23;20073;-89
2023/10/04 16:49:44;;;;;;;15.45;7.15;;;;;;;;;;10163872;23;20319;-89
2023/10/04 16:53:47;;;;;;;14.18;6.88;;;;;;;;;;10187412;23;20021;-86
2023/10/04 16:57:51;;;;;;;15.55;6.72;;;;;;;;;;10158124;23;20029;-87
2023/10/04 17:01:55;;;;;;;12.70;7.25;;;;;;;;;;10157766;23;20017;-88
2023/10/04 17:06:04;;;;;;;10.70;5.13;;;;;;;;;;10158728;23;20013;-90
2023/10/04 17:10:11;;;;;;;11.48;6.07;;;;;;;;;;10183662;23;20041;-86
2023/10/04 17:14:16;;;;;;;13.55;6.40;;;;;;;;;;10199798;23;20035;-86
2023/10/04 17:18:21;;;;;;;15.90;8.75;;;;;;;;;;10204286;23;20028;-88
2023/10/04 17:22:32;;;;;;;14.10;8.80;;;;;;;;;;10232924;23;20397;-86
2023/10/04 17:26:35;;;;;;;25.88;13.13;;;;;;;;;;10248550;23;20108;-86
2023/10/04 17:30:40;;;;;;;20.23;7.47;;;;;;;;;;10232351;23;20104;-87
2023/10/04 17:34:46;;;;;;;12.63;6.15;;;;;;;;;;10248837;23;20021;-88
2023/10/04 17:39:02;;;;;;;10.13;6.03;;;;;;;;;;10234058;23;20445;-95
2023/10/04 17:43:08;;;;;;;12.07;7.13;;;;;;;;;;10033862;23;20030;-88
2023/10/04 17:47:13;;;;;;;20.90;10.25;;;;;;;;;;10046247;23;20105;-93
2023/10/04 17:51:19;;;;;;;19.92;9.45;;;;;;;;;;10009308;23;20038;-88
2023/10/04 17:55:32;;;;;;;22.48;9.07;;;;;;;;;;10043432;23;20156;-89
2023/10/04 17:59:44;;;;;;;24.67;11.75;;;;;;;;;;10008458;23;20488;-87
2023/10/04 18:03:50;;;;;;;27.00;12.50;;;;;;;;;;10032947;23;20074;-87
2023/10/04 18:07:56;;;;;;;26.63;14.95;;;;;;;;;;10032813;23;20034;-87
2023/10/04 18:12:12;;;;;;;14.98;8.57;;;;;;;;;;10036966;23;20568;-90
2023/10/04 18:16:17;;;;;;;14.80;7.70;;;;;;;;;;10009904;23;20023;-89
2023/10/04 18:20:27;;;;;;;15.27;9.05;;;;;;;;;;10012844;23;20616;-91
2023/10/04 18:24:32;;;;;;;23.48;10.70;;;;;;;;;;10066860;23;20096;-90
2023/10/04 18:28:41;;;;;;;16.10;8.90;;;;;;;;;;10235189;23;20421;-87
2023/10/04 18:32:48;;;;;;;19.83;7.88;;;;;;;;;;10256805;23;20484;-89
2023/10/04 18:36:54;;;;;;;21.33;8.45;;;;;;;;;;10211787;23;20035;-88
2023/10/04 18:41:03;;;;;;;15.32;8.02;;;;;;;;;;10235240;23;20021;-87
2023/10/04 18:45:14;;;;;;;13.95;6.63;;;;;;;;;;10234268;23;20021;-88
2023/10/04 18:49:28;;;;;;;14.75;7.22;;;;;;;;;;10240377;23;20024;-87
2023/10/04 18:58:52;;;;;;;17.20;8.27;;;;;;;;;;9993701;23;20515;-89
2023/10/04 19:03:00;;;;;;;20.25;8.43;;;;;;;;;;10238587;23;20607;-87
2023/10/04 19:07:09;;;;;;;21.20;7.95;;;;;;;;;;10237460;23;20021;-87
2023/10/04 19:11:25;;;;;;;16.42;8.65;;;;;;;;;;10260208;23;20068;-87
2023/10/04 19:15:37;;;;;;;20.45;9.18;;;;;;;;;;10254684;23;20362;-88
2023/10/04 19:19:47;;;;;;;20.88;8.75;;;;;;;;;;10241443;23;20032;-89
2023/10/04 19:23:52;;;;;;;23.33;8.15;;;;;;;;;;10238529;23;20021;-90
2023/10/04 19:28:01;;;;;;;21.13;8.88;;;;;;;;;;10256320;23;20068;-88
2023/10/04 19:32:13;;;;;;;23.00;8.95;;;;;;;;;;10259966;23;20048;-90
2023/10/04 19:36:22;;;;;;;26.77;9.65;;;;;;;;;;10268704;23;20017;-89
2023/10/04 19:40:28;;;;;;;21.20;9.55;;;;;;;;;;10246828;23;20739;-92
2023/10/04 19:44:36;;;;;;;20.73;8.90;;;;;;;;;;10254510;23;20028;-90
2023/10/04 19:48:41;;;;;;;23.13;10.48;;;;;;;;;;10250981;23;20040;-89
2023/10/04 19:52:49;;;;;;;23.70;9.88;;;;;;;;;;10234838;23;20419;-87
2023/10/04 19:56:55;;;;;;;21.95;10.50;;;;;;;;;;10233218;23;20017;-89
2023/10/04 20:01:01;;;;;;;26.70;9.52;;;;;;;;;;10232706;23;20017;-87
2023/10/04 20:05:13;;;;;;;27.15;9.82;;;;;;;;;;10232598;23;20013;-89
2023/10/04 20:09:37;;;;;;;;;;;;;;;;;;;;;
2023/10/04 20:13:56;;;;;;;23.27;10.02;;;;;;;;;;10231753;23;20227;-89
2023/10/04 20:18:02;;;;;;;24.20;9.15;;;;;;;;;;10244206;23;20391;-87
2023/10/04 20:22:11;;;;;;;18.52;9.13;;;;;;;;;;10250346;23;20525;-87
2023/10/04 20:26:24;;;;;;;16.67;8.25;;;;;;;;;;10249255;23;20025;-87
2023/10/04 20:30:31;;;;;;;19.38;10.05;;;;;;;;;;10231050;23;20017;-89
2023/10/04 20:34:35;;;;;;;24.10;9.50;;;;;;;;;;10249157;23;20104;-86
2023/10/04 20:38:39;;;;;;;21.23;9.85;;;;;;;;;;10232690;23;20017;-87
2023/10/04 20:42:44;;;;;;;22.48;10.27;;;;;;;;;;10230593;23;20044;-87
2023/10/04 20:46:47;;;;;;;21.20;9.15;;;;;;;;;;10231634;23;20063;-85
2023/10/04 20:50:52;;;;;;;19.33;10.32;;;;;;;;;;10234512;23;20023;-86
2023/10/04 20:54:56;;;;;;;21.38;10.30;;;;;;;;;;10253116;23;20024;-91
2023/10/04 20:59:02;;;;;;;21.02;9.15;;;;;;;;;;10257322;23;20016;-86
2023/10/04 21:03:06;;;;;;;20.80;11.05;;;;;;;;;;10272507;23;20025;-86
2023/10/04 21:07:09;;;;;;;25.48;11.40;;;;;;;;;;10254705;23;20064;-87
2023/10/04 21:11:12;;;;;;;30.15;12.25;;;;;;;;;;10244491;23;20020;-89
2023/10/04 21:15:20;;;;;;;33.53;12.68;;;;;;;;;;10232516;23;20028;-89
2023/10/04 21:19:23;;;;;;;30.08;10.73;;;;;;;;;;10235501;23;20025;-87
2023/10/04 21:23:26;;;;;;;32.03;11.20;;;;;;;;;;10236949;23;20353;-86
2023/10/04 21:27:29;;;;;;;20.10;10.43;;;;;;;;;;10233204;23;20103;-90
2023/10/04 21:31:35;;;;;;;22.98;10.48;;;;;;;;;;10233160;23;20103;-90
2023/10/04 21:35:38;;;;;;;26.52;10.10;;;;;;;;;;10234335;23;20017;-86
2023/10/04 21:39:46;;;;;;;26.50;10.32;;;;;;;;;;10233257;23;20056;-87
2023/10/04 21:43:59;;;;;;;23.88;9.98;;;;;;;;;;10232307;23;20029;-87
2023/10/04 21:48:17;;;;;;;20.83;9.88;;;;;;;;;;10231650;23;20341;-89
2023/10/04 21:52:24;;;;;;;19.20;8.82;;;;;;;;;;10249440;23;20363;-91
2023/10/04 21:56:28;;;;;;;25.65;10.98;;;;;;;;;;10231496;23;20041;-88
2023/10/04 22:00:34;;;;;;;29.17;11.15;;;;;;;;;;10232662;23;20028;-87
2023/10/04 22:04:38;;;;;;;30.98;10.50;;;;;;;;;;10249063;23;20104;-87
2023/10/04 22:08:41;;;;;;;31.35;11.20;;;;;;;;;;10232913;23;20021;-89
2023/10/04 22:12:44;;;;;;;24.73;11.15;;;;;;;;;;10232652;23;20067;-87
2023/10/04 22:16:48;;;;;;;25.55;11.05;;;;;;;;;;10232085;23;20028;-86
2023/10/04 22:21:00;;;;;;;31.85;12.07;;;;;;;;;;10181024;23;20398;-88
2023/10/04 22:25:04;;;;;;;27.13;9.65;;;;;;;;;;10181807;23;20388;-87
2023/10/04 22:29:09;;;;;;;25.10;10.57;;;;;;;;;;10181945;23;20096;-89
2023/10/04 22:33:12;;;;;;;23.23;10.50;;;;;;;;;;10182933;23;20018;-87
2023/10/04 22:37:16;;;;;;;28.95;10.23;;;;;;;;;;10181669;23;20760;-88
2023/10/04 22:41:20;;;;;;;29.08;10.30;;;;;;;;;;10182391;23;20022;-87
2023/10/04 22:45:23;;;;;;;25.83;10.52;;;;;;;;;;10181748;23;20075;-89
2023/10/04 22:49:28;;;;;;;28.15;9.85;;;;;;;;;;10182754;23;20014;-88
2023/10/04 22:53:34;;;;;;;23.67;10.50;;;;;;;;;;10182536;23;20100;-89
2023/10/04 22:57:37;;;;;;;26.42;10.77;;;;;;;;;;10181405;23;20022;-86
2023/10/04 23:01:43;;;;;;;29.15;11.77;;;;;;;;;;10181933;23;20107;-87
2023/10/04 23:05:53;;;;;;;27.08;11.23;;;;;;;;;;10181609;23;20032;-88
2023/10/04 23:10:00;;;;;;;28.80;9.38;;;;;;;;;;10183795;23;20017;-88
2023/10/04 23:14:04;;;;;;;22.67;9.82;;;;;;;;;;10202143;23;20025;-88
2023/10/04 23:18:22;;;;;;;24.65;10.77;;;;;;;;;;10183955;23;20029;-88
2023/10/04 23:22:30;;;;;;;25.35;10.27;;;;;;;;;;10184571;23;20029;-88
2023/10/04 23:26:35;;;;;;;32.80;12.07;;;;;;;;;;10201867;23;20027;-91
2023/10/04 23:30:42;;;;;;;25.98;10.60;;;;;;;;;;10184435;23;20072;-92
2023/10/04 23:34:49;;;;;;;23.83;9.10;;;;;;;;;;10201461;23;20101;-88
2023/10/04 23:39:00;;;;;;;22.48;8.70;;;;;;;;;;10201329;23;20017;-91
2023/10/04 23:43:07;;;;;;;18.35;9.45;;;;;;;;;;10184124;23;20017;-89
2023/10/04 23:47:15;;;;;;;21.50;11.25;;;;;;;;;;10184963;23;20017;-88
2023/10/04 23:51:18;;;;;;;23.40;11.00;;;;;;;;;;10183240;23;20091;-87
2023/10/04 23:55:26;;;;;;;25.98;11.07;;;;;;;;;;10185242;23;20100;-87
2023/10/04 23:59:34;;;;;;;20.35;10.27;;;;;;;;;;10183618;23;20412;-90
